Time;durP1;ratioP1;P1;durP2;ratioP2;P2;SDS_P1;SDS_P2;PMS_P1;PMS_P2;Temp;Humidity;BMP_temperature;BMP_pressure;BME280_temperature;BME280_humidity;BME280_pressure;Samples;Min_cycle;Max_cycle;Signal;HPM_P1;HPM_P2
2021/01/18 00:00:54;;;;;;;7.03;3.67;;;0.30;99.90;;;;;;5011003;28;20483;-59
2021/01/18 00:03:19;;;;;;;6.50;3.63;;;0.30;99.90;;;;;;5014040;28;20448;-59
2021/01/18 00:05:45;;;;;;;6.87;3.67;;;0.30;99.90;;;;;;5011001;28;20445;-60
2021/01/18 00:08:11;;;;;;;5.33;3.70;;;0.30;99.90;;;;;;5007855;28;20191;-59
2021/01/18 00:10:37;;;;;;;7.40;3.30;;;0.20;99.90;;;;;;5007001;28;20305;-60
2021/01/18 00:13:02;;;;;;;6.13;3.70;;;0.20;99.90;;;;;;4991909;28;20209;-59
2021/01/18 00:15:28;;;;;;;4.83;3.70;;;0.20;99.90;;;;;;5003678;28;20425;-64
2021/01/18 00:17:55;;;;;;;5.30;3.50;;;0.20;99.90;;;;;;4997948;28;20191;-59
2021/01/18 00:20:22;;;;;;;9.47;4.10;;;0.20;99.90;;;;;;5010023;28;20213;-59
2021/01/18 00:22:48;;;;;;;6.93;4.73;;;0.20;99.90;;;;;;5013168;28;20453;-59
2021/01/18 00:25:22;;;;;;;8.10;4.03;;;0.20;99.90;;;;;;5009350;28;20438;-60
2021/01/18 00:27:49;;;;;;;6.53;3.73;;;0.20;99.90;;;;;;5009779;28;20425;-59
2021/01/18 00:30:23;;;;;;;5.30;3.93;;;0.20;99.90;;;;;;5012817;28;20447;-63
2021/01/18 00:32:49;;;;;;;7.87;4.00;;;0.10;99.90;;;;;;4994286;28;20490;-60
2021/01/18 00:35:16;;;;;;;6.63;3.47;;;0.10;99.90;;;;;;5007436;28;20803;-61
2021/01/18 00:37:44;;;;;;;6.63;4.23;;;0.10;99.90;;;;;;5011409;28;20922;-61
2021/01/18 00:40:12;;;;;;;4.97;3.70;;;0.10;99.90;;;;;;5013583;28;20425;-60
2021/01/18 00:42:39;;;;;;;3.30;2.90;;;0.10;99.90;;;;;;5004109;28;20448;-59
2021/01/18 00:45:07;;;;;;;7.67;4.00;;;0.10;99.90;;;;;;5012622;28;20503;-60
2021/01/18 00:47:37;;;;;;;7.83;3.37;;;0.10;99.90;;;;;;5013269;28;20445;-59
2021/01/18 00:50:03;;;;;;;5.97;4.27;;;0.10;99.90;;;;;;5009843;28;20421;-61
2021/01/18 00:52:29;;;;;;;7.87;3.43;;;0.00;99.90;;;;;;5009979;28;21006;-60
2021/01/18 00:54:55;;;;;;;8.73;3.73;;;0.00;99.90;;;;;;5013513;28;20435;-58
2021/01/18 00:57:20;;;;;;;4.90;3.37;;;0.00;99.90;;;;;;5013877;28;20185;-59
2021/01/18 00:59:46;;;;;;;3.40;3.07;;;-0.10;99.90;;;;;;5002219;28;20569;-59
2021/01/18 01:02:11;;;;;;;5.67;3.63;;;-0.10;99.90;;;;;;5010907;28;20209;-59
2021/01/18 01:04:37;;;;;;;4.87;3.60;;;-0.10;99.90;;;;;;5007727;28;20265;-61
2021/01/18 01:07:04;;;;;;;6.70;3.47;;;-0.20;99.90;;;;;;5006984;28;20213;-59
2021/01/18 01:09:29;;;;;;;5.97;4.00;;;-0.20;99.90;;;;;;5004879;28;20211;-60
2021/01/18 01:11:55;;;;;;;6.93;3.80;;;-0.20;99.90;;;;;;5012052;28;20991;-60
2021/01/18 01:14:20;;;;;;;8.33;4.17;;;-0.10;99.90;;;;;;5004136;28;20219;-59
2021/01/18 01:16:46;;;;;;;10.07;3.50;;;-0.10;99.90;;;;;;5008392;28;20190;-58
2021/01/18 01:19:12;;;;;;;4.43;3.43;;;-0.10;99.90;;;;;;4993452;28;20445;-60
2021/01/18 01:21:38;;;;;;;4.40;3.60;;;-0.10;99.90;;;;;;5008979;28;20229;-61
2021/01/18 01:24:04;;;;;;;5.43;3.80;;;-0.10;99.90;;;;;;5003987;28;20193;-60
2021/01/18 01:26:30;;;;;;;6.30;3.80;;;0.00;99.90;;;;;;5004423;28;20435;-60
2021/01/18 01:28:56;;;;;;;8.90;4.23;;;0.00;99.90;;;;;;5012646;28;20916;-61
2021/01/18 01:31:21;;;;;;;8.13;3.80;;;0.00;99.90;;;;;;5012581;28;20305;-61
2021/01/18 01:33:47;;;;;;;7.53;4.30;;;0.00;99.90;;;;;;5013049;28;20178;-60
2021/01/18 01:36:12;;;;;;;7.17;3.70;;;0.00;99.90;;;;;;5008161;28;20640;-60
2021/01/18 01:38:38;;;;;;;6.30;4.07;;;0.00;99.90;;;;;;4993767;28;20608;-61
2021/01/18 01:41:04;;;;;;;9.57;4.67;;;0.00;99.90;;;;;;4997076;28;20248;-60
2021/01/18 01:43:30;;;;;;;6.70;4.07;;;0.00;99.90;;;;;;5002682;28;20418;-62
2021/01/18 01:45:56;;;;;;;9.37;4.20;;;0.00;99.90;;;;;;5011679;28;20447;-58
2021/01/18 01:48:22;;;;;;;5.47;4.23;;;0.00;99.90;;;;;;5010337;28;20209;-60
2021/01/18 01:50:48;;;;;;;6.10;3.73;;;0.00;99.90;;;;;;4999258;28;20568;-60
2021/01/18 01:53:26;;;;;;;5.80;3.77;;;0.00;99.90;;;;;;4994981;28;20576;-60
2021/01/18 01:55:53;;;;;;;7.50;3.67;;;0.00;99.90;;;;;;4992370;28;20182;-61
2021/01/18 01:58:20;;;;;;;4.27;3.60;;;0.00;99.90;;;;;;5012189;28;20961;-60
2021/01/18 02:00:46;;;;;;;6.57;3.80;;;0.00;99.90;;;;;;5003958;28;20441;-60
2021/01/18 02:03:39;;;;;;;11.50;4.17;;;0.00;99.90;;;;;;5012706;28;20482;-60
2021/01/18 02:06:05;;;;;;;6.37;3.67;;;0.00;99.90;;;;;;5009912;28;20179;-61
2021/01/18 02:08:30;;;;;;;7.13;4.20;;;0.00;99.90;;;;;;5001638;28;20442;-61
2021/01/18 02:10:56;;;;;;;4.73;3.50;;;0.00;99.90;;;;;;4992476;28;20521;-60
2021/01/18 02:13:45;;;;;;;8.90;4.10;;;0.00;99.90;;;;;;4993483;28;20270;-58
2021/01/18 02:16:24;;;;;;;7.73;4.40;;;0.00;99.90;;;;;;4988336;28;20440;-61
2021/01/18 02:19:10;;;;;;;5.60;4.03;;;0.00;99.90;;;;;;5005588;28;20499;-60
2021/01/18 02:22:00;;;;;;;9.67;4.00;;;0.00;99.90;;;;;;5008146;28;20452;-60
2021/01/18 02:24:35;;;;;;;7.80;3.90;;;0.00;99.90;;;;;;5002560;28;20430;-59
2021/01/18 02:27:01;;;;;;;7.13;4.30;;;0.00;99.90;;;;;;5011637;28;20430;-60
2021/01/18 02:29:45;;;;;;;6.23;3.80;;;0.00;99.90;;;;;;4992007;28;20517;-59
2021/01/18 02:32:27;;;;;;;8.87;3.83;;;0.00;99.90;;;;;;5008569;28;20504;-60
2021/01/18 02:35:15;;;;;;;7.93;3.50;;;0.00;99.90;;;;;;5002498;28;20424;-59
2021/01/18 02:37:55;;;;;;;9.83;4.03;;;0.00;99.90;;;;;;5009003;28;20429;-58
2021/01/18 02:40:32;;;;;;;7.97;4.20;;;0.10;99.90;;;;;;5010687;28;20426;-58
2021/01/18 02:43:03;;;;;;;8.33;3.57;;;0.10;99.90;;;;;;4994799;28;20469;-60
2021/01/18 02:45:31;;;;;;;6.53;3.50;;;0.10;99.90;;;;;;5000960;28;20467;-60
2021/01/18 02:47:57;;;;;;;6.70;3.87;;;0.10;99.90;;;;;;5008675;28;20443;-59
2021/01/18 02:50:23;;;;;;;6.80;4.03;;;0.10;99.90;;;;;;5010901;28;20461;-60
2021/01/18 02:52:50;;;;;;;4.70;3.47;;;0.10;99.90;;;;;;5022289;23;20504;-57
2021/01/18 02:55:16;;;;;;;7.00;3.73;;;0.10;99.90;;;;;;5009102;28;20451;-56
2021/01/18 02:57:44;;;;;;;5.70;3.93;;;0.10;99.90;;;;;;5003395;28;20421;-55
2021/01/18 03:00:16;;;;;;;5.37;3.87;;;0.10;99.90;;;;;;4997109;28;20954;-57
2021/01/18 03:02:51;;;;;;;4.23;3.50;;;0.20;99.90;;;;;;5009009;28;20448;-56
2021/01/18 03:05:37;;;;;;;6.43;4.07;;;0.20;99.90;;;;;;5002390;28;20512;-57
2021/01/18 03:08:21;;;;;;;6.40;3.87;;;0.10;99.90;;;;;;4998073;28;20524;-56
2021/01/18 03:10:54;;;;;;;6.73;3.60;;;0.20;99.90;;;;;;4988990;28;20461;-57
2021/01/18 03:13:37;;;;;;;7.10;3.83;;;0.20;99.90;;;;;;4990401;28;20436;-57
2021/01/18 03:16:18;;;;;;;5.83;3.73;;;0.20;99.90;;;;;;4997886;28;20440;-57
2021/01/18 03:18:45;;;;;;;6.10;4.13;;;0.20;99.90;;;;;;5006512;28;20452;-57
2021/01/18 03:21:12;;;;;;;6.13;3.50;;;0.20;99.90;;;;;;5004237;28;20491;-55
2021/01/18 03:23:45;;;;;;;7.13;3.60;;;0.20;99.90;;;;;;5002991;28;20774;-57
2021/01/18 03:26:12;;;;;;;9.07;4.30;;;0.20;99.90;;;;;;4993152;28;20440;-57
2021/01/18 03:28:38;;;;;;;9.20;3.90;;;0.20;99.90;;;;;;4989831;28;20417;-56
2021/01/18 03:31:05;;;;;;;5.73;3.43;;;0.20;99.90;;;;;;5002702;28;20984;-57
2021/01/18 03:33:31;;;;;;;8.60;4.27;;;0.30;99.90;;;;;;5006791;28;20453;-56
2021/01/18 03:35:56;;;;;;;4.53;4.10;;;0.30;99.90;;;;;;5009318;28;20424;-55
2021/01/18 03:38:23;;;;;;;6.93;3.70;;;0.30;99.90;;;;;;5009886;28;20176;-56
2021/01/18 03:40:50;;;;;;;7.57;3.93;;;0.30;99.90;;;;;;5012927;28;20269;-57
2021/01/18 03:43:18;;;;;;;4.90;3.50;;;0.30;99.90;;;;;;4996208;28;20482;-57
2021/01/18 03:45:45;;;;;;;7.90;4.60;;;0.40;99.90;;;;;;5007205;28;20427;-58
2021/01/18 03:48:11;;;;;;;6.40;3.80;;;0.40;99.90;;;;;;5012931;28;20432;-56
2021/01/18 03:50:38;;;;;;;6.77;4.10;;;0.40;99.90;;;;;;5002974;28;20211;-56
2021/01/18 03:53:05;;;;;;;9.80;4.10;;;0.40;99.90;;;;;;4999192;28;20476;-55
2021/01/18 03:55:30;;;;;;;5.97;3.90;;;0.40;99.90;;;;;;4993630;28;20412;-55
2021/01/18 03:57:57;;;;;;;8.33;3.90;;;0.50;99.90;;;;;;5005954;28;20814;-57
2021/01/18 04:00:28;;;;;;;4.63;3.77;;;0.50;99.90;;;;;;5008897;28;20942;-56
2021/01/18 04:02:54;;;;;;;8.90;3.67;;;0.50;99.90;;;;;;5009025;28;21025;-56
2021/01/18 04:05:21;;;;;;;7.83;4.80;;;0.50;99.90;;;;;;5011311;28;20421;-57
2021/01/18 04:07:48;;;;;;;8.00;3.50;;;0.50;99.90;;;;;;5011373;28;20824;-56
2021/01/18 04:10:21;;;;;;;6.63;4.03;;;0.50;99.90;;;;;;5011389;28;20429;-57
2021/01/18 04:12:49;;;;;;;5.90;3.53;;;0.50;99.90;;;;;;5011620;28;20447;-58
2021/01/18 04:15:16;;;;;;;10.33;4.17;;;0.40;99.90;;;;;;5012188;28;20551;-60
2021/01/18 04:17:44;;;;;;;6.00;4.53;;;0.50;99.90;;;;;;5005550;28;20513;-54
2021/01/18 04:20:11;;;;;;;6.73;4.13;;;0.50;99.90;;;;;;4992563;28;20499;-58
2021/01/18 04:22:42;;;;;;;9.73;5.17;;;0.50;99.90;;;;;;4997481;28;20476;-57
2021/01/18 04:25:10;;;;;;;8.53;3.77;;;0.50;99.90;;;;;;4996370;28;20764;-56
2021/01/18 04:27:37;;;;;;;9.40;4.60;;;0.50;99.90;;;;;;5001189;28;20831;-58
2021/01/18 04:30:07;;;;;;;11.27;4.43;;;0.50;99.90;;;;;;4990074;28;22018;-57
2021/01/18 04:32:32;;;;;;;17.00;5.43;;;0.50;99.90;;;;;;5013662;28;20445;-57
2021/01/18 04:34:58;;;;;;;8.73;4.03;;;0.50;99.90;;;;;;5009313;28;20436;-56
2021/01/18 04:37:24;;;;;;;15.20;4.83;;;0.50;99.90;;;;;;5003804;28;20182;-56
2021/01/18 04:39:49;;;;;;;8.03;4.70;;;0.50;99.90;;;;;;4992494;28;21116;-55
2021/01/18 04:42:15;;;;;;;6.67;4.07;;;0.50;99.90;;;;;;4992587;28;20205;-55
2021/01/18 04:44:41;;;;;;;6.47;4.17;;;0.50;99.90;;;;;;4995881;28;20263;-56
2021/01/18 04:47:12;;;;;;;8.00;4.30;;;0.50;99.90;;;;;;5010711;28;21011;-55
2021/01/18 04:49:40;;;;;;;7.50;4.07;;;0.50;99.90;;;;;;5009591;28;20930;-55
2021/01/18 04:52:16;;;;;;;6.83;3.73;;;0.50;99.90;;;;;;5010587;28;20627;-56
2021/01/18 04:54:49;;;;;;;8.73;3.90;;;0.50;99.90;;;;;;5011219;28;20568;-56
2021/01/18 04:57:19;;;;;;;12.33;4.10;;;0.50;99.90;;;;;;5008171;28;20429;-56
2021/01/18 04:59:49;;;;;;;8.90;4.40;;;0.50;99.90;;;;;;4993886;28;21205;-57
2021/01/18 05:02:23;;;;;;;5.27;3.97;;;0.50;99.90;;;;;;5001812;28;20480;-55
2021/01/18 05:04:50;;;;;;;9.50;4.87;;;0.50;99.90;;;;;;4995212;28;20444;-56
2021/01/18 05:07:34;;;;;;;10.13;4.80;;;0.40;99.90;;;;;;4996971;28;20425;-54
2021/01/18 05:10:04;;;;;;;9.00;4.13;;;0.50;99.90;;;;;;5008228;28;20521;-55
2021/01/18 05:12:30;;;;;;;18.57;5.10;;;0.50;99.90;;;;;;4996705;28;20975;-55
2021/01/18 05:14:58;;;;;;;12.90;4.50;;;0.50;99.90;;;;;;4999743;28;20479;-56
2021/01/18 05:17:49;;;;;;;9.20;4.73;;;0.50;99.90;;;;;;4999306;28;20924;-54
2021/01/18 05:20:16;;;;;;;6.43;4.20;;;0.50;99.90;;;;;;4998887;28;20625;-55
2021/01/18 05:22:44;;;;;;;8.27;4.17;;;0.50;99.90;;;;;;5002220;28;20911;-55
2021/01/18 05:25:12;;;;;;;7.70;4.40;;;0.50;99.90;;;;;;4997888;28;20434;-54
2021/01/18 05:28:04;;;;;;;12.27;3.23;;;0.50;99.90;;;;;;4991982;28;20962;-52
2021/01/18 05:30:43;;;;;;;7.63;3.87;;;0.50;99.90;;;;;;4995321;28;20797;-55
2021/01/18 05:33:14;;;;;;;9.23;4.87;;;0.50;99.90;;;;;;5002797;28;20966;-58
2021/01/18 05:35:45;;;;;;;16.70;4.87;;;0.50;99.90;;;;;;5002889;28;20460;-58
2021/01/18 05:38:12;;;;;;;7.50;4.50;;;0.50;99.90;;;;;;5003716;28;20437;-58
2021/01/18 05:40:46;;;;;;;8.80;4.63;;;0.50;99.90;;;;;;5001045;28;20424;-58
2021/01/18 05:43:15;;;;;;;12.20;4.27;;;0.50;99.90;;;;;;4994590;28;20453;-56
2021/01/18 05:45:46;;;;;;;12.83;4.50;;;0.50;99.90;;;;;;5010346;28;21076;-57
2021/01/18 05:48:24;;;;;;;11.53;4.23;;;0.40;99.90;;;;;;5002805;28;20436;-58
2021/01/18 05:50:55;;;;;;;9.17;4.30;;;0.40;99.90;;;;;;4999136;28;20496;-57
2021/01/18 05:53:28;;;;;;;8.10;4.50;;;0.40;99.90;;;;;;5001014;28;20476;-60
2021/01/18 05:55:54;;;;;;;11.00;4.07;;;0.40;99.90;;;;;;5001371;28;20423;-57
2021/01/18 05:58:33;;;;;;;10.13;4.30;;;0.40;99.90;;;;;;4998089;28;20421;-59
2021/01/18 06:01:02;;;;;;;8.07;4.30;;;0.40;99.90;;;;;;4993418;28;20186;-55
2021/01/18 06:03:31;;;;;;;9.73;4.53;;;0.40;99.90;;;;;;4991077;28;20461;-58
2021/01/18 06:05:59;;;;;;;6.57;4.03;;;0.40;99.90;;;;;;4994556;28;20438;-60
2021/01/18 06:08:26;;;;;;;10.43;4.90;;;0.50;99.90;;;;;;4998793;28;20519;-56
2021/01/18 06:10:56;;;;;;;14.53;4.80;;;0.50;99.90;;;;;;4999935;28;20496;-58
2021/01/18 06:13:26;;;;;;;12.77;4.53;;;0.50;99.90;;;;;;4998161;28;20979;-56
2021/01/18 06:16:01;;;;;;;9.60;5.07;;;0.50;99.90;;;;;;4992583;28;20440;-57
2021/01/18 06:18:30;;;;;;;8.87;4.40;;;0.50;99.90;;;;;;4989312;28;20433;-58
2021/01/18 06:20:57;;;;;;;12.90;5.63;;;0.50;99.90;;;;;;4996328;28;20438;-58
2021/01/18 06:23:23;;;;;;;5.70;4.17;;;0.50;99.90;;;;;;4999055;28;22178;-58
2021/01/18 06:25:54;;;;;;;7.90;5.50;;;0.50;99.90;;;;;;4997413;28;20438;-55
2021/01/18 06:28:33;;;;;;;6.87;4.63;;;0.50;99.90;;;;;;5000645;28;20428;-57
2021/01/18 06:31:01;;;;;;;10.07;4.50;;;0.50;99.90;;;;;;4991884;28;20471;-54
2021/01/18 06:33:42;;;;;;;13.93;4.73;;;0.50;99.90;;;;;;4990369;28;20452;-56
2021/01/18 06:36:11;;;;;;;7.77;4.53;;;0.50;99.90;;;;;;4995024;28;20429;-57
2021/01/18 06:38:39;;;;;;;14.90;5.00;;;0.50;99.90;;;;;;5001829;28;20482;-54
2021/01/18 06:41:07;;;;;;;12.53;4.80;;;0.50;99.90;;;;;;4996930;28;20440;-56
2021/01/18 06:43:33;;;;;;;7.80;4.10;;;0.50;99.90;;;;;;4990837;28;20468;-58
2021/01/18 06:45:58;;;;;;;11.10;4.63;;;0.50;99.90;;;;;;4982347;28;20433;-56
2021/01/18 06:48:25;;;;;;;7.60;4.87;;;0.60;99.90;;;;;;4986125;28;20225;-60
2021/01/18 06:50:50;;;;;;;6.60;4.10;;;0.50;99.90;;;;;;4991484;28;21162;-56
2021/01/18 06:53:31;;;;;;;10.57;4.63;;;0.50;99.90;;;;;;4990037;28;20473;-56
2021/01/18 06:56:32;;;;;;;10.33;4.00;;;0.50;99.90;;;;;;4990851;28;20429;-58
2021/01/18 06:59:08;;;;;;;11.97;4.73;;;0.50;99.90;;;;;;4967806;28;20438;-57
2021/01/18 07:01:36;;;;;;;9.10;4.90;;;0.50;99.90;;;;;;4992283;28;20429;-56
2021/01/18 07:04:09;;;;;;;8.73;4.20;;;0.50;99.90;;;;;;4989010;28;20563;-55
2021/01/18 07:06:39;;;;;;;9.00;4.97;;;0.50;99.90;;;;;;4990370;28;20439;-55
2021/01/18 07:09:10;;;;;;;7.93;4.13;;;0.50;99.90;;;;;;4994987;28;20499;-57
2021/01/18 07:11:36;;;;;;;9.43;4.87;;;0.50;99.90;;;;;;5002748;28;20491;-55
2021/01/18 07:14:07;;;;;;;8.90;5.27;;;0.50;99.90;;;;;;4991472;28;20468;-59
2021/01/18 07:16:35;;;;;;;17.40;5.13;;;0.50;99.90;;;;;;4992619;28;20513;-57
2021/01/18 07:19:06;;;;;;;7.13;4.30;;;0.50;99.90;;;;;;4989024;28;20447;-56
2021/01/18 07:21:47;;;;;;;7.80;4.57;;;0.50;99.90;;;;;;4994502;28;20506;-58
2021/01/18 07:24:16;;;;;;;7.67;4.70;;;0.50;99.90;;;;;;4995411;28;20489;-57
2021/01/18 07:26:50;;;;;;;7.77;4.83;;;0.50;99.90;;;;;;4993447;28;20468;-57
2021/01/18 07:29:19;;;;;;;10.87;5.50;;;0.50;99.90;;;;;;4996059;28;20464;-57
2021/01/18 07:31:48;;;;;;;7.47;4.90;;;0.50;99.90;;;;;;4990600;28;20477;-61
2021/01/18 07:34:16;;;;;;;7.30;4.60;;;0.50;99.90;;;;;;4993836;28;20754;-61
2021/01/18 07:36:42;;;;;;;10.90;4.20;;;0.50;99.90;;;;;;4995477;28;20449;-61
2021/01/18 07:39:29;;;;;;;13.70;5.50;;;0.50;99.90;;;;;;4993147;28;20461;-59
2021/01/18 07:41:55;;;;;;;9.77;5.33;;;0.50;99.90;;;;;;4991045;28;20429;-57
2021/01/18 07:44:31;;;;;;;7.90;4.60;;;0.60;99.90;;;;;;4998541;28;20536;-60
2021/01/18 07:47:03;;;;;;;10.10;5.57;;;0.50;99.90;;;;;;4998368;28;20456;-54
2021/01/18 07:49:42;;;;;;;6.60;4.67;;;0.60;99.90;;;;;;4997464;28;20432;-59
2021/01/18 07:52:19;;;;;;;10.30;6.00;;;0.60;99.90;;;;;;4997297;28;20965;-58
2021/01/18 07:54:49;;;;;;;15.27;5.00;;;0.60;99.90;;;;;;4997208;28;20436;-56
2021/01/18 07:57:29;;;;;;;9.37;4.90;;;0.60;99.90;;;;;;4995145;28;20578;-57
2021/01/18 08:00:30;;;;;;;17.33;5.57;;;0.60;99.90;;;;;;4993135;28;20535;-55
2021/01/18 08:03:20;;;;;;;10.33;4.90;;;0.60;99.90;;;;;;4936717;28;20466;-57
2021/01/18 08:05:47;;;;;;;12.53;4.63;;;0.60;99.90;;;;;;4990572;28;20459;-57
2021/01/18 08:08:13;;;;;;;13.40;5.40;;;0.60;99.90;;;;;;4999181;28;20500;-59
2021/01/18 08:10:54;;;;;;;10.93;5.30;;;0.60;99.90;;;;;;4997735;28;20527;-58
2021/01/18 08:13:37;;;;;;;9.30;5.30;;;0.50;99.90;;;;;;4999725;28;20465;-57
2021/01/18 08:16:14;;;;;;;9.53;5.07;;;0.50;99.90;;;;;;4990893;28;20483;-58
2021/01/18 08:18:51;;;;;;;9.73;4.50;;;0.50;99.90;;;;;;4999085;28;20461;-58
2021/01/18 08:21:47;;;;;;;17.87;5.80;;;0.60;99.90;;;;;;5001675;28;21237;-59
2021/01/18 08:24:35;;;;;;;13.23;6.07;;;0.60;99.90;;;;;;4946010;28;20458;-57
2021/01/18 08:27:07;;;;;;;10.90;5.17;;;0.60;99.90;;;;;;5000084;28;20469;-58
2021/01/18 08:29:36;;;;;;;9.33;5.17;;;0.60;99.90;;;;;;4999339;28;20451;-59
2021/01/18 08:32:20;;;;;;;9.00;5.23;;;0.60;99.90;;;;;;4997174;28;20474;-58
2021/01/18 08:34:51;;;;;;;11.10;4.90;;;0.70;99.90;;;;;;4993368;28;20438;-58
2021/01/18 08:37:17;;;;;;;10.33;5.40;;;0.70;99.90;;;;;;4996731;28;21012;-57
2021/01/18 08:40:13;;;;;;;9.17;5.20;;;0.70;99.90;;;;;;4997418;28;20440;-57
2021/01/18 08:42:40;;;;;;;12.63;6.27;;;0.70;99.90;;;;;;4993260;28;21179;-61
2021/01/18 08:45:28;;;;;;;10.83;5.50;;;0.70;99.90;;;;;;4997812;28;20440;-58
2021/01/18 08:47:59;;;;;;;10.90;5.80;;;0.80;99.90;;;;;;5000646;28;20805;-58
2021/01/18 08:50:27;;;;;;;11.63;5.53;;;0.80;99.90;;;;;;4999319;28;20441;-59
2021/01/18 08:53:01;;;;;;;15.90;5.87;;;0.80;99.90;;;;;;5013130;23;21719;-61
2021/01/18 08:55:30;;;;;;;13.00;6.77;;;0.80;99.90;;;;;;4978148;28;22304;-60
2021/01/18 08:57:58;;;;;;;13.60;7.20;;;0.80;99.90;;;;;;4974860;28;20437;-61
2021/01/18 09:00:36;;;;;;;11.27;6.37;;;0.90;99.90;;;;;;4982613;28;20811;-61
2021/01/18 09:03:02;;;;;;;11.00;5.40;;;0.90;99.90;;;;;;4985855;28;20936;-60
2021/01/18 09:05:28;;;;;;;13.13;7.17;;;0.90;99.90;;;;;;4980255;28;20446;-61
2021/01/18 09:07:54;;;;;;;20.20;6.50;;;0.90;99.90;;;;;;4984677;28;20444;-62
2021/01/18 09:10:22;;;;;;;11.30;6.40;;;1.00;99.90;;;;;;4962349;28;20202;-62
2021/01/18 09:12:49;;;;;;;14.13;5.70;;;1.00;99.90;;;;;;4981822;28;20874;-62
2021/01/18 09:15:17;;;;;;;13.10;6.50;;;1.00;99.90;;;;;;4981558;28;21039;-61
2021/01/18 09:17:43;;;;;;;8.67;5.27;;;1.00;99.90;;;;;;4979186;28;20794;-61
2021/01/18 09:20:10;;;;;;;16.53;5.83;;;1.00;99.90;;;;;;4981880;28;20441;-62
2021/01/18 09:22:38;;;;;;;10.00;4.87;;;1.10;99.90;;;;;;4983021;28;20557;-61
2021/01/18 09:25:05;;;;;;;12.50;6.30;;;1.10;99.90;;;;;;4981521;28;20425;-61
2021/01/18 09:27:36;;;;;;;10.77;5.27;;;1.10;99.90;;;;;;4976007;28;20894;-62
2021/01/18 09:30:06;;;;;;;7.87;4.63;;;1.10;99.90;;;;;;4984398;28;20484;-66
2021/01/18 09:32:32;;;;;;;10.23;4.33;;;1.10;99.90;;;;;;4980071;28;20459;-62
2021/01/18 09:35:14;;;;;;;10.07;5.20;;;1.20;99.90;;;;;;4980723;28;20442;-63
2021/01/18 09:37:44;;;;;;;8.40;4.53;;;1.20;99.90;;;;;;4978935;28;20433;-61
2021/01/18 09:40:11;;;;;;;10.00;5.00;;;1.20;99.90;;;;;;4980008;28;20446;-63
2021/01/18 09:42:37;;;;;;;13.60;5.93;;;1.30;99.90;;;;;;4998578;28;20433;-65
2021/01/18 09:45:08;;;;;;;13.10;4.80;;;1.30;99.90;;;;;;5000046;28;20468;-63
2021/01/18 09:47:34;;;;;;;10.80;4.93;;;1.30;99.90;;;;;;4998819;28;20438;-63
2021/01/18 09:50:15;;;;;;;8.60;4.60;;;1.30;99.90;;;;;;4994883;28;20497;-62
2021/01/18 09:52:51;;;;;;;8.10;5.00;;;1.40;99.90;;;;;;4980637;28;20478;-62
2021/01/18 09:55:24;;;;;;;10.53;5.33;;;1.40;99.90;;;;;;4980583;28;20456;-61
2021/01/18 09:58:23;;;;;;;7.77;4.50;;;1.40;99.90;;;;;;4978639;28;20811;-61
2021/01/18 10:00:52;;;;;;;8.50;5.30;;;1.40;99.90;;;;;;4951995;28;20970;-61
2021/01/18 10:03:34;;;;;;;9.20;5.40;;;1.40;99.90;;;;;;4980243;28;20936;-61
2021/01/18 10:06:12;;;;;;;10.60;5.87;;;1.50;99.90;;;;;;4981961;28;20485;-61
2021/01/18 10:08:44;;;;;;;18.03;5.77;;;1.50;99.90;;;;;;4978854;28;20446;-61
2021/01/18 10:11:10;;;;;;;14.53;6.30;;;1.50;99.90;;;;;;4977654;28;20626;-62
2021/01/18 10:13:36;;;;;;;10.53;5.70;;;1.60;99.90;;;;;;4977787;28;21066;-61
2021/01/18 10:16:10;;;;;;;9.87;6.00;;;1.60;99.90;;;;;;4979831;28;20186;-61
2021/01/18 10:18:50;;;;;;;12.63;6.60;;;1.60;99.90;;;;;;4982518;28;20437;-62
2021/01/18 10:21:16;;;;;;;12.07;5.10;;;1.60;99.90;;;;;;4977560;28;20444;-61
2021/01/18 10:23:46;;;;;;;7.87;5.30;;;1.70;99.90;;;;;;4979353;28;21173;-62
2021/01/18 10:26:18;;;;;;;8.13;5.40;;;1.70;99.90;;;;;;4980747;28;20456;-62
2021/01/18 10:28:58;;;;;;;7.87;5.30;;;1.80;99.90;;;;;;4983195;28;21045;-61
2021/01/18 10:31:33;;;;;;;10.57;5.37;;;1.80;99.90;;;;;;4983899;28;20501;-61
2021/01/18 10:34:17;;;;;;;8.60;4.90;;;1.80;99.90;;;;;;4985819;28;20511;-62
2021/01/18 10:36:48;;;;;;;8.33;4.87;;;1.80;99.90;;;;;;4982684;28;20438;-62
2021/01/18 10:39:34;;;;;;;8.43;4.33;;;1.80;99.80;;;;;;4983134;28;20988;-62
2021/01/18 10:42:06;;;;;;;8.60;4.53;;;1.80;99.80;;;;;;4982057;28;20532;-61
2021/01/18 10:44:34;;;;;;;10.03;4.50;;;1.90;99.90;;;;;;4985198;28;21047;-63
2021/01/18 10:47:00;;;;;;;12.70;6.10;;;1.90;99.80;;;;;;4981238;28;20492;-61
2021/01/18 10:49:34;;;;;;;7.73;4.67;;;1.90;99.50;;;;;;4983431;28;20453;-64
2021/01/18 10:52:02;;;;;;;7.53;4.50;;;1.90;99.60;;;;;;4982218;28;20568;-60
2021/01/18 10:54:28;;;;;;;9.53;5.13;;;1.90;99.80;;;;;;4981494;28;21012;-62
2021/01/18 10:56:58;;;;;;;10.83;4.33;;;2.00;99.70;;;;;;4973823;28;20450;-62
2021/01/18 10:59:24;;;;;;;8.33;4.43;;;2.00;99.40;;;;;;4976036;28;20190;-60
2021/01/18 11:02:11;;;;;;;9.00;4.50;;;2.00;99.50;;;;;;4974813;28;20448;-61
2021/01/18 11:04:44;;;;;;;9.87;4.63;;;2.00;99.30;;;;;;4977648;28;20563;-62
2021/01/18 11:07:11;;;;;;;9.87;5.10;;;2.10;99.40;;;;;;4980735;28;20990;-61
2021/01/18 11:09:38;;;;;;;9.20;4.73;;;2.10;99.20;;;;;;4979796;28;20462;-61
2021/01/18 11:12:05;;;;;;;8.67;4.90;;;2.10;99.30;;;;;;4975800;28;20462;-61
2021/01/18 11:14:31;;;;;;;10.77;4.43;;;2.20;99.00;;;;;;4982727;28;20458;-61
2021/01/18 11:17:09;;;;;;;10.63;5.00;;;2.20;99.20;;;;;;4981183;28;20445;-62
2021/01/18 11:19:37;;;;;;;5.73;4.00;;;2.20;99.40;;;;;;4978633;28;20825;-62
2021/01/18 11:22:04;;;;;;;7.43;4.47;;;2.30;99.30;;;;;;4980083;28;20442;-62
2021/01/18 11:24:29;;;;;;;7.00;4.30;;;2.40;99.10;;;;;;4978295;28;20574;-61
2021/01/18 11:26:55;;;;;;;6.10;4.43;;;2.30;98.30;;;;;;4980355;28;20529;-61
2021/01/18 11:29:25;;;;;;;8.20;4.30;;;2.30;98.60;;;;;;4982893;28;20251;-61
2021/01/18 11:31:50;;;;;;;7.80;4.30;;;2.30;98.60;;;;;;4981179;28;20202;-60
2021/01/18 11:34:16;;;;;;;7.53;4.00;;;2.30;98.50;;;;;;4981935;28;20475;-60
2021/01/18 11:36:42;;;;;;;11.07;4.70;;;2.30;98.40;;;;;;4979036;28;20190;-60
2021/01/18 11:39:09;;;;;;;7.63;4.00;;;2.30;98.40;;;;;;4980985;28;20489;-62
2021/01/18 11:41:36;;;;;;;9.03;3.70;;;2.30;98.40;;;;;;4971871;28;20437;-62
2021/01/18 11:44:05;;;;;;;10.20;3.60;;;2.30;98.60;;;;;;4975669;28;20480;-62
2021/01/18 11:46:33;;;;;;;5.77;3.70;;;2.30;98.60;;;;;;4993362;28;20448;-61
2021/01/18 11:49:01;;;;;;;5.20;3.70;;;2.30;98.40;;;;;;4985699;28;20437;-62
2021/01/18 11:51:27;;;;;;;6.17;4.00;;;2.40;98.40;;;;;;4995082;28;20465;-55
2021/01/18 11:53:52;;;;;;;7.10;3.37;;;2.40;97.70;;;;;;4975298;28;20468;-60
2021/01/18 11:56:18;;;;;;;7.57;4.00;;;2.30;97.80;;;;;;4980997;28;20952;-60
2021/01/18 11:58:44;;;;;;;10.27;4.47;;;2.30;97.90;;;;;;4982019;28;20469;-62
2021/01/18 12:01:10;;;;;;;5.90;3.20;;;2.40;98.20;;;;;;4975194;28;20952;-62
2021/01/18 12:03:36;;;;;;;5.67;3.73;;;2.40;98.10;;;;;;4964920;28;20468;-63
2021/01/18 12:06:02;;;;;;;5.60;2.90;;;2.40;98.30;;;;;;4983066;28;20227;-61
2021/01/18 12:08:28;;;;;;;4.20;2.70;;;2.40;98.30;;;;;;4983124;28;20241;-62
2021/01/18 12:10:54;;;;;;;4.57;3.07;;;2.40;98.30;;;;;;4982320;28;21062;-60
2021/01/18 12:13:20;;;;;;;4.37;2.97;;;2.40;97.80;;;;;;4981238;28;20199;-61
2021/01/18 12:15:45;;;;;;;3.20;2.90;;;2.40;97.80;;;;;;4981554;28;20233;-63
2021/01/18 12:18:11;;;;;;;4.93;3.20;;;2.40;97.80;;;;;;4981444;28;20198;-61
2021/01/18 12:20:37;;;;;;;6.80;3.67;;;2.40;98.20;;;;;;4980772;28;20866;-62
2021/01/18 12:23:03;;;;;;;3.97;3.53;;;2.40;98.40;;;;;;4978242;28;20213;-63
2021/01/18 12:25:29;;;;;;;3.70;3.17;;;2.40;98.30;;;;;;4984163;28;20443;-63
2021/01/18 12:27:57;;;;;;;8.07;3.77;;;2.40;98.10;;;;;;4994331;28;20185;-62
2021/01/18 12:30:23;;;;;;;6.43;3.77;;;2.40;97.90;;;;;;4998377;28;20662;-64
2021/01/18 12:32:50;;;;;;;5.50;3.67;;;2.40;97.90;;;;;;4999653;28;20477;-62
2021/01/18 12:35:16;;;;;;;7.37;3.90;;;2.30;98.10;;;;;;5004639;28;20451;-65
2021/01/18 12:37:42;;;;;;;9.00;3.90;;;2.30;97.80;;;;;;5002830;28;20763;-66
2021/01/18 12:40:10;;;;;;;4.80;3.80;;;2.30;98.20;;;;;;5004100;28;20435;-65
2021/01/18 12:42:47;;;;;;;6.77;3.90;;;2.30;98.30;;;;;;4999202;28;20437;-65
2021/01/18 12:45:15;;;;;;;7.93;3.67;;;2.30;98.40;;;;;;4996427;28;20434;-60
2021/01/18 12:47:40;;;;;;;8.70;3.90;;;2.30;98.30;;;;;;4996980;28;20445;-60
2021/01/18 12:50:07;;;;;;;12.90;5.00;;;2.30;98.40;;;;;;5000629;28;20435;-65
2021/01/18 12:52:33;;;;;;;9.20;4.77;;;2.40;98.60;;;;;;4996252;28;20201;-60
2021/01/18 12:54:59;;;;;;;12.10;4.40;;;2.40;98.40;;;;;;4996754;28;20466;-65
2021/01/18 12:57:25;;;;;;;8.70;5.40;;;2.40;98.10;;;;;;4994749;28;20252;-63
2021/01/18 12:59:51;;;;;;;11.33;5.20;;;2.40;98.30;;;;;;4999369;28;20195;-63
2021/01/18 13:02:17;;;;;;;8.97;5.30;;;2.40;98.40;;;;;;4997811;28;20450;-64
2021/01/18 13:04:44;;;;;;;8.80;4.93;;;2.40;98.40;;;;;;4999782;28;21043;-64
2021/01/18 13:07:10;;;;;;;9.33;5.03;;;2.40;98.40;;;;;;4995042;28;20450;-61
2021/01/18 13:09:36;;;;;;;8.50;5.07;;;2.40;98.50;;;;;;4982213;28;20453;-60